Time;durP1;ratioP1;P1;durP2;ratioP2;P2;SDS_P1;SDS_P2;PMS_P1;PMS_P2;Temp;Humidity;BMP_temperature;BMP_pressure;BME280_temperature;BME280_humidity;BME280_pressure;Samples;Min_cycle;Max_cycle;Signal;HPM_P1;HPM_P2
2023/05/07 00:01:59;;;;;;;;;3.00;1.67;;;;;25.76;42.10;101313.59;5075584;28;45336;-80
2023/05/07 00:04:24;;;;;;;;;0.67;0.67;;;;;25.76;42.30;101321.59;5075574;28;45459;-75
2023/05/07 00:06:50;;;;;;;;;2.00;2.00;;;;;25.48;42.38;101275.22;5075116;28;46045;-83
2023/05/07 00:09:16;;;;;;;;;0.33;0.33;;;;;25.72;42.16;101305.97;5075508;28;45384;-82
2023/05/07 00:11:41;;;;;;;;;3.00;2.00;;;;;25.73;42.28;101306.78;5075264;28;45416;-82
2023/05/07 00:14:07;;;;;;;;;1.67;1.00;;;;;25.69;42.02;101303.69;5076356;28;45383;-83
2023/05/07 00:16:32;;;;;;;;;2.00;2.00;;;;;25.69;42.45;101305.50;5078697;27;45420;-83
2023/05/07 00:18:57;;;;;;;;;1.33;1.00;;;;;25.73;42.14;101315.66;5078961;27;45398;-82
2023/05/07 00:21:26;;;;;;;;;1.33;1.33;;;;;25.75;42.13;101318.09;5078467;28;45339;-83
2023/05/07 00:23:51;;;;;;;;;0.00;0.00;;;;;25.67;42.24;101318.22;5078719;27;45543;-82
2023/05/07 00:26:17;;;;;;;;;2.00;2.00;;;;;25.74;42.25;101333.25;5078495;28;46185;-83
2023/05/07 00:28:42;;;;;;;;;1.33;1.33;;;;;25.69;42.47;101338.31;5078554;28;45444;-82
2023/05/07 00:31:07;;;;;;;;;1.00;1.00;;;;;25.74;42.19;101340.44;5078670;27;46009;-82
2023/05/07 00:33:33;;;;;;;;;1.00;1.00;;;;;25.68;42.08;101328.69;5078322;28;45466;-82
2023/05/07 00:35:58;;;;;;;;;2.33;1.67;;;;;25.65;42.18;101323.75;5076678;27;47201;-82
2023/05/07 00:38:23;;;;;;;;;0.00;0.00;;;;;25.60;42.04;101313.69;5078509;28;45399;-82
2023/05/07 00:40:48;;;;;;;;;1.00;1.00;;;;;25.65;41.89;101322.91;5078174;27;45497;-82
2023/05/07 00:43:14;;;;;;;;;1.33;1.33;;;;;25.67;41.96;101324.38;5078643;27;45469;-82
2023/05/07 00:45:40;;;;;;;;;2.67;2.00;;;;;25.72;42.36;101331.78;5078368;28;45467;-82
2023/05/07 00:48:05;;;;;;;;;1.33;1.33;;;;;25.71;42.01;101324.81;5078084;27;45342;-83
2023/05/07 00:50:32;;;;;;;;;3.67;1.00;;;;;25.71;42.28;101322.94;5078091;28;45390;-83
2023/05/07 00:52:58;;;;;;;;;1.33;1.33;;;;;25.64;42.48;101316.75;5078316;27;45435;-82
2023/05/07 00:55:24;;;;;;;;;3.00;1.67;;;;;25.70;42.21;101324.00;5078058;27;45393;-82
2023/05/07 00:57:50;;;;;;;;;3.00;0.00;;;;;25.58;41.83;101309.56;5078151;27;45281;-81
2023/05/07 01:00:16;;;;;;;;;4.00;1.00;;;;;25.70;42.24;101320.50;5078309;27;45291;-82
2023/05/07 01:02:42;;;;;;;;;3.67;2.00;;;;;25.53;42.17;101299.47;5078108;28;45387;-82
2023/05/07 01:05:11;;;;;;;;;3.00;2.00;;;;;25.68;42.30;101327.88;5077621;27;46303;-82
2023/05/07 01:07:38;;;;;;;;;2.33;1.67;;;;;25.55;42.37;101304.59;5078174;28;45550;-82
2023/05/07 01:10:05;;;;;;;;;2.33;2.33;;;;;25.67;42.28;101315.56;5077978;27;45356;-82
2023/05/07 01:12:31;;;;;;;;;2.33;2.33;;;;;25.66;42.42;101312.06;5078053;28;45383;-82
2023/05/07 01:14:57;;;;;;;;;1.33;1.33;;;;;25.67;42.47;101307.56;5077721;27;47306;-82
2023/05/07 01:17:22;;;;;;;;;2.67;1.33;;;;;25.66;42.21;101298.72;5077782;28;45379;-82
2023/05/07 01:19:48;;;;;;;;;3.67;2.33;;;;;25.52;42.14;101280.00;5077717;27;45652;-82
2023/05/07 01:22:15;;;;;;;;;2.33;2.33;;;;;25.66;42.33;101293.41;5077791;27;45673;-81
2023/05/07 01:24:41;;;;;;;;;3.00;1.33;;;;;25.53;42.41;101280.81;5077511;28;46092;-81
2023/05/07 01:27:06;;;;;;;;;1.67;1.33;;;;;25.67;42.33;101300.38;5076861;27;45462;-81
2023/05/07 01:29:32;;;;;;;;;2.33;1.33;;;;;25.67;42.15;101297.72;5077784;27;45598;-80
2023/05/07 01:32:00;;;;;;;;;2.00;1.00;;;;;25.57;42.21;101273.25;5059307;28;45543;-81
2023/05/07 01:34:32;;;;;;;;;4.33;2.00;;;;;25.67;42.38;101294.22;5056910;28;46213;-81
2023/05/07 01:36:59;;;;;;;;;3.00;2.00;;;;;25.64;42.14;101298.09;5057242;28;45411;-81
2023/05/07 01:39:26;;;;;;;;;1.67;1.00;;;;;25.63;42.15;101291.94;5057425;28;45361;-81
2023/05/07 01:41:54;;;;;;;;;2.33;2.33;;;;;25.62;41.98;101292.97;5057355;28;45293;-80
2023/05/07 01:44:20;;;;;;;;;2.33;1.67;;;;;25.54;42.35;101286.97;5056821;28;46149;-81
2023/05/07 01:46:47;;;;;;;;;2.33;2.33;;;;;25.59;41.93;101296.03;5056774;28;45831;-82
2023/05/07 01:49:12;;;;;;;;;1.67;1.67;;;;;25.65;42.29;101304.25;5056754;28;45349;-82
2023/05/07 01:51:39;;;;;;;;;2.00;1.33;;;;;25.49;42.45;101274.22;5056930;28;45448;-82
2023/05/07 01:54:05;;;;;;;;;4.00;2.33;;;;;25.63;42.36;101304.47;5056930;28;46308;-81
2023/05/07 01:56:31;;;;;;;;;1.33;1.33;;;;;25.62;42.38;101306.31;5056836;28;45447;-81
2023/05/07 01:58:56;;;;;;;;;2.67;2.67;;;;;25.62;42.35;101306.31;5076161;27;45528;-81
2023/05/07 02:01:21;;;;;;;;;1.33;1.33;;;;;25.62;42.43;101306.31;5077216;28;45611;-81
2023/05/07 02:03:47;;;;;;;;;2.33;1.33;;;;;25.54;42.08;101292.28;5058468;28;46054;-81
2023/05/07 02:06:12;;;;;;;;;1.33;1.33;;;;;25.60;42.53;101300.34;5077264;28;45288;-81
2023/05/07 02:08:37;;;;;;;;;1.67;1.67;;;;;25.18;42.34;101237.13;5058900;28;45419;-81
2023/05/07 02:11:03;;;;;;;;;2.67;2.00;;;;;25.60;42.50;101299.53;5076952;27;45433;-81
2023/05/07 02:13:31;;;;;;;;;1.00;1.00;;;;;25.60;42.07;101300.34;5076844;27;45332;-81
2023/05/07 02:15:57;;;;;;;;;3.00;2.00;;;;;25.55;42.57;101288.63;5076939;27;45426;-81
2023/05/07 02:18:22;;;;;;;;;3.67;3.00;;;;;25.58;42.33;101290.91;5076651;28;45367;-81
2023/05/07 02:20:48;;;;;;;;;1.33;1.33;;;;;25.46;42.73;101271.94;5076819;28;45479;-81
2023/05/07 02:23:13;;;;;;;;;2.00;1.33;;;;;25.51;42.36;101273.03;5076722;27;45473;-81
2023/05/07 02:25:38;;;;;;;;;3.50;2.75;;;;;25.61;42.52;101298.50;5076738;28;45306;-82
2023/05/07 02:28:04;;;;;;;;;3.00;3.00;;;;;25.61;42.47;101291.31;5076905;27;45400;-81
2023/05/07 02:30:29;;;;;;;;;1.33;1.33;;;;;25.55;42.27;101280.63;5058340;28;45311;-81
2023/05/07 02:32:54;;;;;;;;;1.33;1.33;;;;;25.54;42.34;101278.97;5076227;27;45899;-81
2023/05/07 02:35:20;;;;;;;;;3.33;3.33;;;;;25.60;42.64;101300.34;5076534;28;45348;-81
2023/05/07 02:37:45;;;;;;;;;1.33;1.00;;;;;25.61;42.21;101299.31;5075414;28;45421;-81
2023/05/07 02:40:11;;;;;;;;;2.67;2.33;;;;;25.62;42.25;101306.31;5058183;28;45372;-80
2023/05/07 02:42:36;;;;;;;;;3.67;2.33;;;;;25.62;42.13;101313.47;5076252;28;47414;-81
2023/05/07 02:45:02;;;;;;;;;2.67;2.00;;;;;25.51;42.33;101298.84;5076254;28;45359;-81
2023/05/07 02:47:28;;;;;;;;;2.00;2.00;;;;;25.47;42.08;101290.41;5076055;28;46093;-82
2023/05/07 02:49:54;;;;;;;;;2.33;2.33;;;;;25.61;42.36;101307.31;5076493;27;45315;-82
2023/05/07 02:52:20;;;;;;;;;3.00;3.00;;;;;25.57;42.33;101302.56;5076240;28;46321;-82
2023/05/07 02:54:45;;;;;;;;;1.33;1.33;;;;;25.51;42.62;101299.66;5076333;28;45456;-81
2023/05/07 02:57:10;;;;;;;;;3.33;1.67;;;;;25.51;42.29;101298.84;5076238;27;45384;-81
2023/05/07 02:59:36;;;;;;;;;1.33;1.33;;;;;25.52;42.78;101303.16;5076241;28;45412;-81
2023/05/07 03:02:01;;;;;;;;;2.67;2.33;;;;;25.57;42.42;101314.06;5075903;27;46324;-81
2023/05/07 03:04:27;;;;;;;;;1.67;1.67;;;;;25.57;42.52;101314.06;5076172;27;45348;-81
2023/05/07 03:06:52;;;;;;;;;2.33;1.33;;;;;25.46;42.28;101287.94;5076304;28;45256;-81
2023/05/07 03:09:17;;;;;;;;;1.33;1.33;;;;;25.45;42.18;101291.63;5076177;28;45277;-81
2023/05/07 03:11:43;;;;;;;;;1.00;1.00;;;;;25.48;42.59;101299.22;5075801;28;47087;-81
2023/05/07 03:14:08;;;;;;;;;2.33;1.33;;;;;25.58;42.17;101315.69;5076146;27;45277;-81
2023/05/07 03:16:33;;;;;;;;;3.67;3.00;;;;;25.45;42.59;101295.09;5076184;27;45366;-82
2023/05/07 03:18:59;;;;;;;;;1.67;0.33;;;;;25.58;42.47;101320.22;5076180;28;45561;-81
2023/05/07 03:21:26;;;;;;;;;3.33;2.33;;;;;25.39;42.53;101285.22;5075832;27;47076;-81
2023/05/07 03:23:51;;;;;;;;;1.33;1.33;;;;;25.29;42.70;101275.72;5076092;28;45333;-81
2023/05/07 03:26:16;;;;;;;;;4.00;3.00;;;;;25.57;42.35;101319.38;5076067;28;45610;-82
2023/05/07 03:28:42;;;;;;;;;3.33;3.00;;;;;25.57;42.84;101319.38;5075758;28;46105;-81
2023/05/07 03:31:07;;;;;;;;;1.67;1.33;;;;;25.55;42.24;101318.75;5075351;28;47245;-81
2023/05/07 03:33:34;;;;;;;;;3.00;3.00;;;;;25.41;42.19;101296.50;5075768;28;45569;-81
2023/05/07 03:35:59;;;;;;;;;1.33;1.33;;;;;25.56;42.48;101316.91;5075792;28;45324;-81
2023/05/07 03:38:24;;;;;;;;;0.33;0.33;;;;;25.41;42.57;101293.84;5075794;28;45344;-81
2023/05/07 03:40:50;;;;;;;;;1.33;1.33;;;;;25.59;42.47;101324.50;5075512;28;46354;-81
2023/05/07 03:43:15;;;;;;;;;2.33;2.33;;;;;25.49;42.21;101306.19;5075624;28;45343;-81
2023/05/07 03:45:42;;;;;;;;;1.67;1.67;;;;;25.60;42.45;101321.66;5075284;28;45579;-81
2023/05/07 03:48:07;;;;;;;;;1.33;1.33;;;;;25.46;42.38;101310.06;5075691;28;45381;-81
2023/05/07 03:50:32;;;;;;;;;3.00;2.67;;;;;25.51;42.35;101315.66;5078406;28;46886;-82
2023/05/07 03:52:58;;;;;;;;;2.67;2.67;;;;;25.52;42.59;101316.47;5079173;27;45457;-82
2023/05/07 03:55:23;;;;;;;;;3.00;3.00;;;;;25.59;42.34;101324.50;5079306;27;45420;-81
2023/05/07 03:57:49;;;;;;;;;1.33;1.33;;;;;25.59;42.21;101321.84;5079046;27;45335;-81
2023/05/07 04:00:14;;;;;;;;;2.33;2.33;;;;;25.59;42.24;101317.34;5078394;28;46931;-81
2023/05/07 04:02:39;;;;;;;;;3.33;3.33;;;;;25.59;42.44;101325.34;5078802;27;45376;-81
2023/05/07 04:05:05;;;;;;;;;3.00;3.00;;;;;25.39;42.10;101298.53;5078967;27;45411;-81
2023/05/07 04:07:30;;;;;;;;;4.33;2.67;;;;;25.58;42.31;101323.69;5078960;28;45466;-81
2023/05/07 04:09:55;;;;;;;;;2.00;2.00;;;;;25.58;42.35;101321.00;5078676;28;53086;-82
2023/05/07 04:12:21;;;;;;;;;2.33;2.33;;;;;25.42;42.35;101292.84;5078579;27;45366;-81
2023/05/07 04:14:46;;;;;;;;;4.67;3.00;;;;;25.57;42.53;101323.88;5078565;28;45267;-82
2023/05/07 04:17:11;;;;;;;;;3.33;2.33;;;;;25.52;42.48;101321.81;5078891;28;45220;-82
2023/05/07 04:19:37;;;;;;;;;1.00;1.00;;;;;25.45;42.31;101310.28;5078473;27;45773;-82
2023/05/07 04:22:02;;;;;;;;;2.00;2.00;;;;;25.56;42.60;101320.38;5078849;28;45415;-82
2023/05/07 04:24:32;;;;;;;;;3.00;3.00;;;;;25.56;42.47;101324.88;5078790;28;45516;-82
2023/05/07 04:26:58;;;;;;;;;3.67;2.00;;;;;25.55;42.49;101321.41;5078701;28;45283;-81
2023/05/07 04:29:24;;;;;;;;;2.67;2.67;;;;;25.55;42.37;101323.25;5077694;28;45331;-82
2023/05/07 04:31:49;;;;;;;;;2.00;2.00;;;;;25.55;42.23;101321.41;5060481;28;45364;-81
2023/05/07 04:34:15;;;;;;;;;1.33;1.33;;;;;25.55;42.84;101325.91;5078430;28;45219;-81
2023/05/07 04:36:40;;;;;;;;;2.33;2.33;;;;;25.49;42.58;101320.34;5060139;28;45372;-82
2023/05/07 04:39:06;;;;;;;;;3.00;3.00;;;;;25.47;42.90;101316.22;5078087;27;46395;-81
2023/05/07 04:41:31;;;;;;;;;4.00;3.00;;;;;25.43;42.84;101317.59;5078277;28;45311;-81
2023/05/07 04:43:58;;;;;;;;;2.33;2.33;;;;;25.45;42.55;101315.59;5078058;27;45283;-82
2023/05/07 04:46:24;;;;;;;;;2.00;2.00;;;;;25.43;42.41;101312.28;5078490;28;45336;-82
2023/05/07 04:48:50;;;;;;;;;2.33;2.33;;;;;25.56;42.07;101341.69;5078003;28;46280;-82
2023/05/07 04:51:15;;;;;;;;;3.00;3.00;;;;;25.56;42.48;101338.22;5060073;28;45507;-83
2023/05/07 04:53:40;;;;;;;;;2.67;1.33;;;;;25.57;42.53;101340.69;5078302;28;45328;-82
2023/05/07 04:56:06;;;;;;;;;3.33;1.67;;;;;25.49;42.42;101327.50;5078273;27;45395;-81
2023/05/07 04:58:31;;;;;;;;;2.00;2.00;;;;;25.38;42.51;101311.03;5059472;28;46234;-81
2023/05/07 05:00:58;;;;;;;;;2.00;2.00;;;;;25.54;42.54;101335.75;5076742;28;45414;-81
2023/05/07 05:03:23;;;;;;;;;2.00;2.00;;;;;25.58;42.45;101346.84;5078235;27;45372;-81
2023/05/07 05:05:52;;;;;;;;;2.00;2.00;;;;;25.57;42.48;101345.19;5077913;27;46408;-81
2023/05/07 05:08:18;;;;;;;;;1.67;1.67;;;;;25.59;42.34;101354.66;5077780;27;46612;-81
2023/05/07 05:10:44;;;;;;;;;2.00;2.00;;;;;25.55;42.66;101355.22;5059502;28;45405;-82
2023/05/07 05:13:12;;;;;;;;;1.33;1.33;;;;;25.55;42.60;101352.56;5077938;27;45643;-81
2023/05/07 05:15:38;;;;;;;;;1.33;1.33;;;;;25.55;42.55;101355.22;5078798;28;45504;-81
2023/05/07 05:18:03;;;;;;;;;1.33;0.67;;;;;25.54;42.77;101357.06;5077965;27;45320;-81
2023/05/07 05:20:28;;;;;;;;;2.33;2.33;;;;;25.56;42.55;101354.19;5059516;28;45230;-81
2023/05/07 05:22:54;;;;;;;;;3.00;2.00;;;;;25.54;42.52;101357.06;5077820;27;45344;-81
2023/05/07 05:25:19;;;;;;;;;3.00;1.00;;;;;25.55;42.61;101361.38;5077837;27;45352;-81
2023/05/07 05:27:45;;;;;;;;;2.33;2.33;;;;;25.47;42.41;101358.84;5077470;28;46267;-82
2023/05/07 05:30:11;;;;;;;;;1.00;1.00;;;;;25.46;42.62;101358.03;5077729;27;45406;-81
2023/05/07 05:32:36;;;;;;;;;2.00;2.00;;;;;25.51;42.72;101363.59;5059312;28;45368;-81
2023/05/07 05:35:01;;;;;;;;;2.67;2.67;;;;;25.56;42.74;101383.50;5077604;28;45524;-81
2023/05/07 05:37:27;;;;;;;;;4.00;2.67;;;;;25.51;42.62;101376.09;5077327;28;45272;-82
2023/05/07 05:39:54;;;;;;;;;2.00;2.00;;;;;25.43;42.73;101354.91;5077472;27;45284;-81
2023/05/07 05:42:20;;;;;;;;;4.33;4.33;;;;;25.56;42.40;101370.19;5077530;27;45417;-80
2023/05/07 05:44:45;;;;;;;;;2.33;1.33;;;;;25.42;42.76;101345.28;5077429;28;45297;-81
2023/05/07 05:47:10;;;;;;;;;2.33;2.33;;;;;25.40;42.62;101342.78;5077311;28;46844;-81
2023/05/07 05:49:36;;;;;;;;;2.67;2.67;;;;;25.48;42.95;101357.81;5077024;27;45494;-82
2023/05/07 05:52:01;;;;;;;;;2.33;1.67;;;;;25.45;42.73;101361.69;5077386;27;45588;-82
2023/05/07 05:54:27;;;;;;;;;2.00;2.00;;;;;25.49;42.72;101370.97;5076896;28;45507;-80
2023/05/07 05:56:52;;;;;;;;;2.67;2.33;;;;;25.43;42.30;101363.72;5076881;27;46204;-81
2023/05/07 05:59:17;;;;;;;;;3.00;2.33;;;;;25.26;42.48;101337.38;5077388;28;45423;-81
2023/05/07 06:01:43;;;;;;;;;2.00;2.00;;;;;25.27;42.69;101346.97;5077185;27;45388;-81
2023/05/07 06:04:08;;;;;;;;;3.00;3.00;;;;;25.57;42.53;101391.31;5077276;28;45381;-81
2023/05/07 06:06:33;;;;;;;;;5.00;3.67;;;;;25.57;42.67;101399.31;5077076;27;46414;-81
2023/05/07 06:08:58;;;;;;;;;1.33;1.33;;;;;25.44;42.61;101380.53;5076714;27;45343;-81
2023/05/07 06:11:25;;;;;;;;;3.00;2.33;;;;;25.58;42.35;101402.81;5076680;28;45349;-81
2023/05/07 06:13:50;;;;;;;;;1.33;1.33;;;;;25.50;42.59;101390.44;5076970;27;45492;-82
2023/05/07 06:16:15;;;;;;;;;1.67;1.67;;;;;25.50;42.67;101395.78;5076687;28;46586;-82
2023/05/07 06:18:41;;;;;;;;;2.00;2.00;;;;;25.49;42.49;101397.59;5076699;27;45438;-81
2023/05/07 06:21:06;;;;;;;;;1.33;1.33;;;;;25.57;42.90;101409.97;5076898;28;45391;-81
2023/05/07 06:23:31;;;;;;;;;4.00;3.00;;;;;25.46;42.58;101397.97;5076524;27;45327;-81
2023/05/07 06:25:57;;;;;;;;;2.00;2.00;;;;;25.47;42.63;101402.31;5076641;27;45334;-82
2023/05/07 06:28:22;;;;;;;;;1.67;1.67;;;;;25.56;42.58;101418.97;5058464;28;45630;-81
2023/05/07 06:30:49;;;;;;;;;1.33;1.33;;;;;25.56;42.52;101416.31;5076650;27;45632;-81
2023/05/07 06:33:15;;;;;;;;;1.33;1.33;;;;;25.56;42.68;101418.13;5076596;27;45269;-81
2023/05/07 06:35:40;;;;;;;;;3.00;3.00;;;;;25.50;42.65;101409.88;5076840;27;46201;-81
2023/05/07 06:38:06;;;;;;;;;1.33;1.33;;;;;25.56;42.77;101418.13;5076119;27;45443;-81
2023/05/07 06:40:31;;;;;;;;;4.00;2.67;;;;;25.55;42.59;101428.00;5076410;27;45396;-81
2023/05/07 06:42:56;;;;;;;;;2.33;2.33;;;;;25.56;42.83;101431.47;5058295;28;45407;-81
2023/05/07 06:45:22;;;;;;;;;1.00;1.00;;;;;25.56;42.75;101437.63;5076543;28;45584;-81
2023/05/07 06:47:47;;;;;;;;;3.67;2.33;;;;;25.48;42.30;101421.75;5076341;28;45328;-81
2023/05/07 06:50:13;;;;;;;;;2.33;2.33;;;;;25.53;42.49;101427.34;5076463;27;45467;-82
2023/05/07 06:52:38;;;;;;;;;3.00;3.00;;;;;25.48;42.52;101421.75;5076286;28;45233;-82
2023/05/07 06:55:04;;;;;;;;;3.00;3.00;;;;;25.52;42.94;101429.19;5076215;27;46254;-81
2023/05/07 06:57:29;;;;;;;;;1.33;1.33;;;;;25.52;42.55;101434.53;5057976;27;45859;-82
2023/05/07 06:59:55;;;;;;;;;2.00;2.00;;;;;25.52;42.69;101431.88;5076875;27;45272;-82
2023/05/07 07:02:20;;;;;;;;;3.33;3.33;;;;;25.41;42.38;101421.69;5076322;28;45591;-81
2023/05/07 07:04:45;;;;;;;;;1.67;1.67;;;;;25.55;42.78;101443.97;5076271;28;45411;-82
2023/05/07 07:07:11;;;;;;;;;2.33;2.33;;;;;25.48;42.36;101429.75;5057758;28;46895;-82
2023/05/07 07:09:36;;;;;;;;;3.67;2.67;;;;;25.52;42.38;101436.34;5076210;27;45364;-81
2023/05/07 07:12:01;;;;;;;;;2.67;1.33;;;;;25.45;42.69;101425.63;5076115;27;45444;-81
2023/05/07 07:14:27;;;;;;;;;2.00;2.00;;;;;25.55;42.70;101440.47;5075866;28;46127;-82
2023/05/07 07:16:52;;;;;;;;;2.33;2.33;;;;;25.58;42.52;101453.44;5076027;27;45320;-82
2023/05/07 07:19:18;;;;;;;;;2.33;2.33;;;;;25.58;42.60;101450.75;5076174;28;45356;-81
2023/05/07 07:21:44;;;;;;;;;3.00;2.33;;;;;25.51;42.61;101440.03;5075765;27;45825;-81
2023/05/07 07:24:09;;;;;;;;;1.33;1.33;;;;;25.56;42.38;101453.59;5077014;28;47091;-81
2023/05/07 07:26:35;;;;;;;;;3.33;2.33;;;;;25.58;42.60;101453.44;5079382;27;45374;-82
2023/05/07 07:29:00;;;;;;;;;2.33;2.33;;;;;25.50;42.40;101446.38;5079740;27;45373;-81
2023/05/07 07:31:26;;;;;;;;;1.33;1.33;;;;;25.59;42.58;101461.22;5079696;27;45512;-81
2023/05/07 07:33:51;;;;;;;;;3.00;1.67;;;;;25.52;42.34;101455.84;5079184;27;46197;-82
2023/05/07 07:36:16;;;;;;;;;4.00;4.00;;;;;25.54;42.19;101458.31;5079237;27;45467;-82
2023/05/07 07:38:42;;;;;;;;;2.33;0.67;;;;;25.59;42.38;101468.38;5079604;27;45443;-82
2023/05/07 07:41:10;;;;;;;;;2.67;2.33;;;;;25.57;42.77;101465.94;5078557;27;45400;-82
2023/05/07 07:43:35;;;;;;;;;2.33;2.33;;;;;25.46;42.48;101453.09;5079179;27;46303;-80
2023/05/07 07:46:01;;;;;;;;;2.67;1.67;;;;;25.58;42.89;101480.06;5079144;27;45844;-77
2023/05/07 07:48:26;;;;;;;;;1.67;1.67;;;;;25.54;42.96;101470.78;5079160;27;45356;-76
2023/05/07 07:50:52;;;;;;;;;3.00;3.00;;;;;25.35;42.85;101451.75;5060193;28;45543;-76
2023/05/07 07:53:18;;;;;;;;;4.67;3.33;;;;;25.50;42.89;101467.69;5078797;27;45339;-76
2023/05/07 07:55:43;;;;;;;;;2.00;2.00;;;;;25.57;42.68;101479.25;5078964;27;45789;-78
2023/05/07 07:58:09;;;;;;;;;3.33;2.00;;;;;25.48;42.75;101462.53;5078814;28;45424;-76
2023/05/07 08:00:34;;;;;;;;;2.00;2.00;;;;;25.60;42.93;101484.19;5078797;27;45500;-79
2023/05/07 08:03:00;;;;;;;;;1.33;1.33;;;;;25.59;42.60;101487.88;5078743;28;46407;-75
2023/05/07 08:05:25;;;;;;;;;3.33;2.00;;;;;25.50;43.24;101473.03;5078546;27;45427;-84
2023/05/07 08:07:52;;;;;;;;;4.67;2.00;;;;;25.61;43.01;101488.50;5074141;28;45684;-82
2023/05/07 08:10:21;;;;;;;;;2.00;2.00;;;;;25.57;43.06;101486.41;5078018;28;45618;-82
2023/05/07 08:12:49;;;;;;;;;1.33;1.33;;;;;25.63;43.36;101485.66;5077298;28;47060;-74
2023/05/07 08:15:16;;;;;;;;;2.33;2.00;;;;;25.65;42.90;101498.78;5074315;28;45543;-76
2023/05/07 08:17:41;;;;;;;;;3.33;2.00;;;;;25.66;43.25;101503.91;5077560;28;45419;-82
2023/05/07 08:20:07;;;;;;;;;1.67;1.67;;;;;25.66;43.13;101501.25;5077568;27;45345;-76
2023/05/07 08:22:34;;;;;;;;;2.00;2.00;;;;;25.58;42.76;101496.88;5077964;28;46209;-79
2023/05/07 08:25:00;;;;;;;;;1.67;1.67;;;;;25.59;43.04;101495.88;5078217;27;45473;-76
2023/05/07 08:27:25;;;;;;;;;3.00;2.33;;;;;25.58;42.90;101493.41;5078093;28;45606;-81
2023/05/07 08:29:50;;;;;;;;;2.33;2.33;;;;;25.44;42.98;101473.78;5078433;28;45364;-81
2023/05/07 08:32:16;;;;;;;;;2.33;2.33;;;;;25.72;43.00;101515.66;5078085;28;45381;-81
2023/05/07 08:34:41;;;;;;;;;2.33;1.67;;;;;25.51;42.90;101486.16;5077694;28;45397;-81
2023/05/07 08:37:06;;;;;;;;;1.00;1.00;;;;;25.70;42.98;101512.38;5078099;27;45317;-81
2023/05/07 08:39:32;;;;;;;;;2.67;2.67;;;;;25.66;42.62;101511.91;5078284;27;45461;-81
2023/05/07 08:42:00;;;;;;;;;1.67;1.67;;;;;25.70;42.86;101515.88;5077968;27;47505;-81
2023/05/07 08:44:27;;;;;;;;;4.00;2.00;;;;;25.70;43.05;101521.19;5078192;27;45339;-82
2023/05/07 08:46:56;;;;;;;;;2.33;2.33;;;;;25.63;43.09;101506.97;5078174;28;45409;-82
2023/05/07 08:49:21;;;;;;;;;2.67;2.67;;;;;25.69;42.97;101522.19;5077763;27;45488;-82
2023/05/07 08:51:47;;;;;;;;;3.33;1.33;;;;;25.68;43.02;101517.91;5078060;28;45307;-81
2023/05/07 08:54:16;;;;;;;;;2.33;1.33;;;;;25.66;42.83;101519.91;5059945;28;45321;-80
2023/05/07 08:56:41;;;;;;;;;2.33;1.67;;;;;25.58;42.52;101509.38;5078155;27;45360;-82
2023/05/07 08:59:07;;;;;;;;;4.33;3.67;;;;;25.60;42.67;101526.00;5078115;28;45462;-82
2023/05/07 09:01:35;;;;;;;;;2.33;2.33;;;;;25.62;42.89;101532.78;5078145;28;46172;-82
2023/05/07 09:04:00;;;;;;;;;2.67;1.33;;;;;25.64;42.84;101529.94;5077685;27;45475;-82
2023/05/07 09:06:26;;;;;;;;;2.33;2.33;;;;;25.64;42.95;101535.25;5078051;27;45446;-82
2023/05/07 09:08:53;;;;;;;;;3.00;3.00;;;;;25.65;42.77;101530.75;5078106;28;45417;-82
2023/05/07 09:11:22;;;;;;;;;4.00;3.33;;;;;25.65;42.91;101533.44;5077826;28;46394;-82
2023/05/07 09:13:48;;;;;;;;;3.00;3.00;;;;;25.65;43.09;101539.59;5078145;28;45374;-82
2023/05/07 09:16:15;;;;;;;;;3.33;2.67;;;;;25.52;43.23;101514.44;5078088;28;45390;-81
2023/05/07 09:18:42;;;;;;;;;4.33;2.33;;;;;25.63;42.36;101542.41;5077983;28;45384;-82
2023/05/07 09:21:10;;;;;;;;;3.67;3.33;;;;;25.65;42.84;101549.41;5077718;28;46210;-82
2023/05/07 09:23:35;;;;;;;;;2.67;2.33;;;;;25.61;42.46;101551.63;5077797;27;45422;-82
2023/05/07 09:26:01;;;;;;;;;3.33;3.33;;;;;25.64;42.69;101551.25;5078027;27;45439;-82
2023/05/07 09:28:26;;;;;;;;;3.00;3.00;;;;;25.65;42.80;101557.41;5078145;27;45491;-81
2023/05/07 09:30:52;;;;;;;;;3.33;3.33;;;;;25.62;43.07;101550.63;5077395;27;46102;-82
2023/05/07 09:33:17;;;;;;;;;2.33;1.00;;;;;25.65;42.89;101558.25;5077155;27;45435;-81
2023/05/07 09:35:42;;;;;;;;;2.33;2.33;;;;;25.65;42.64;101555.56;5077874;27;45518;-82
2023/05/07 09:38:08;;;;;;;;;2.33;2.33;;;;;25.55;42.63;101536.41;5077474;27;55023;-81
2023/05/07 09:40:33;;;;;;;;;2.67;2.67;;;;;25.59;42.67;101550.97;5077192;27;46214;-81
2023/05/07 09:43:19;;;;;;;;;3.67;2.33;;;;;25.64;42.94;101559.25;5077483;27;45389;-81
2023/05/07 09:45:44;;;;;;;;;2.33;2.33;;;;;25.61;42.75;101554.28;5059090;27;45498;-81
2023/05/07 09:48:11;;;;;;;;;2.00;2.00;;;;;25.65;42.65;101552.91;5076705;28;45493;-82
2023/05/07 09:50:46;;;;;;;;;2.33;2.33;;;;;25.66;42.77;101559.06;5077118;28;47129;-81
2023/05/07 09:53:13;;;;;;;;;4.00;3.33;;;;;25.65;42.93;101555.56;5077452;28;45266;-81
2023/05/07 09:55:39;;;;;;;;;1.33;1.33;;;;;25.65;42.70;101557.41;5077614;28;45472;-82
2023/05/07 09:58:06;;;;;;;;;2.67;2.67;;;;;25.65;42.56;101562.75;5077119;27;45436;-82
2023/05/07 10:00:32;;;;;;;;;3.67;1.33;;;;;25.61;42.80;101562.28;5077321;27;45388;-81
2023/05/07 10:02:58;;;;;;;;;1.67;1.67;;;;;25.65;42.86;101573.41;5076856;27;45424;-82
2023/05/07 10:05:25;;;;;;;;;4.33;2.00;;;;;25.61;42.92;101564.94;5077294;27;45417;-82
2023/05/07 10:07:50;;;;;;;;;4.00;3.00;;;;;25.66;42.84;101572.41;5077354;27;45362;-83
2023/05/07 10:10:17;;;;;;;;;2.33;2.33;;;;;25.56;42.60;101562.84;5077186;28;46088;-82
2023/05/07 10:12:42;;;;;;;;;3.00;3.00;;;;;25.66;42.60;101583.06;5077835;28;45383;-82
2023/05/07 10:15:10;;;;;;;;;2.33;2.33;;;;;25.23;42.75;101518.81;5077103;28;45483;-82
2023/05/07 10:17:37;;;;;;;;;1.67;1.67;;;;;25.66;42.79;101588.38;5076686;28;45439;-82
2023/05/07 10:20:03;;;;;;;;;1.67;1.33;;;;;25.67;42.78;101588.19;5076689;27;47371;-82
2023/05/07 10:22:44;;;;;;;;;2.67;2.67;;;;;25.59;43.06;101586.44;5076887;28;45313;-81
2023/05/07 10:25:18;;;;;;;;;3.67;2.67;;;;;25.49;43.04;101570.75;5076978;27;45398;-81
2023/05/07 10:27:44;;;;;;;;;4.00;2.33;;;;;25.67;42.93;101592.69;5076643;27;45359;-80
2023/05/07 10:30:33;;;;;;;;;2.67;2.67;;;;;25.67;42.81;101598.84;5076275;27;46423;-81
2023/05/07 10:33:05;;;;;;;;;1.33;1.33;;;;;25.61;42.59;101587.09;5076394;28;45424;-76
2023/05/07 10:35:38;;;;;;;;;3.00;2.67;;;;;25.66;42.90;101599.03;5076451;27;45371;-79
2023/05/07 10:38:04;;;;;;;;;2.00;2.00;;;;;25.60;42.89;101600.59;5077360;28;45218;-80
2023/05/07 10:40:31;;;;;;;;;2.67;2.67;;;;;25.60;43.10;101609.44;5076133;27;46410;-79
2023/05/07 10:43:01;;;;;;;;;4.33;3.00;;;;;25.37;43.37;101591.72;5076496;27;45498;-79
2023/05/07 10:45:28;;;;;;;;;2.33;2.33;;;;;25.34;43.72;101593.94;5076248;27;45292;-80
2023/05/07 10:48:07;;;;;;;;;1.67;1.67;;;;;25.42;43.51;101606.31;5076533;27;45426;-78
2023/05/07 10:50:32;;;;;;;;;2.00;2.00;;;;;25.27;43.56;101584.00;5076030;28;46600;-80
2023/05/07 10:53:18;;;;;;;;;5.33;4.33;;;;;25.47;43.94;101611.94;5076349;28;45502;-79
2023/05/07 10:55:48;;;;;;;;;3.00;3.00;;;;;25.33;44.01;101587.78;5076517;28;45330;-78
2023/05/07 10:58:27;;;;;;;;;2.67;1.67;;;;;25.46;44.01;101597.78;5072539;27;45355;-79
2023/05/07 11:01:01;;;;;;;;;1.33;1.33;;;;;25.56;43.78;101618.78;5067998;27;46567;-78
2023/05/07 11:03:27;;;;;;;;;2.33;1.33;;;;;25.60;43.68;101620.09;5073268;27;46539;-79
2023/05/07 11:06:13;;;;;;;;;1.67;1.67;;;;;25.52;44.02;101606.88;5072750;28;45535;-78
2023/05/07 11:09:05;;;;;;;;;3.33;1.67;;;;;25.64;43.95;101620.53;5075477;28;45474;-78
2023/05/07 11:11:47;;;;;;;;;1.67;1.67;;;;;25.67;43.93;101622.00;5069874;27;45547;-78
2023/05/07 11:14:42;;;;;;;;;1.33;0.67;;;;;25.69;43.63;101630.63;5074907;27;45253;-79
2023/05/07 11:17:08;;;;;;;;;1.33;1.33;;;;;25.68;43.72;101634.31;5074898;28;45448;-78
2023/05/07 11:19:50;;;;;;;;;3.00;3.00;;;;;25.72;43.73;101639.09;5075321;27;45367;-78
2023/05/07 11:22:39;;;;;;;;;2.00;1.00;;;;;25.73;43.58;101639.91;5080629;27;46151;-79